Meteo Giornale » Osservazioni meteo Stati Uniti (USA) » Hickory
ore: 04:53 - Osservazioni Meteo Hickory
Lat. 35° 44' N Lon. 81° 22' W Alt. 362 metri s.l.m.
22 °C
Sereno
Temp. 24 Ore
19 °C
32 °C
Nord
5.5 Km/h
Dew point 22 °C
Umidità 100 %
Visibilità 14 Km
Il sole sorge alle ore 06:57
Il sole tramonta alle ore 19:53
| Data e Ora | Cielo e Fenomeni | T °C | DP °C | Um. % | Pres. hPa | Vis. km | Vento km/h | |
|---|---|---|---|---|---|---|---|---|
| Oggi h: 04:53 | Sereno | 22 | 22 | 100 | 1020 | 14 | N 5.5 | |
| Oggi h: 03:53 | Sereno | 22 | 22 | 100 | 1020 | 10 | O 7.4 | |
| Oggi h: 02:53 | Sereno | 23 | 22 | 94 | 1020 | 10 | NO 9.3 | |
| Oggi h: 01:53 | Sereno | 23 | 22 | 94 | 1020 | 10 | O 9.3 | |
| Oggi h: 00:53 | Sereno | 23 | 22 | 94 | 1020 | 10 | N 5.5 | |
| Ieri h: 23:53 | Sereno | 24 | 22 | 88 | 1020 | 10 | N 0 | |
| Ieri h: 22:53 | Sereno | 25 | 22 | 83 | 1020 | 10 | O/NO 7.4 | |
| Ieri h: 21:53 | Sereno | 26 | 22 | 78 | 1020 | 10 | O/NO 9.3 | |
| Ieri h: 20:53 | Sereno | 27 | 22 | 74 | 1019 | 10 | NO 7.4 | |
| Ieri h: 19:53 | Sereno | 28 | 22 | 69 | 1019 | 10 | N 5.5 | |
| Ieri h: 18:53 | Sereno | 29 | 22 | 66 | 1019 | 10 | N 0 | |
| Ieri h: 17:53 | Sereno | 30 | 22 | 62 | 1020 | 10 | N 5.5 | |
| Ieri h: 16:53 | Sereno | 29 | 21 | 62 | 1020 | 10 | N/NE 9.3 | |
| Ieri h: 15:53 | Sereno | 31 | 18 | 45 | 1020 | 10 | N 5.5 | |
| Ieri h: 14:53 | Poco Nuvoloso | 32 | 18 | 43 | 1020 | 10 | SE 7.4 | |
| Ieri h: 13:53 | Sereno | 31 | 19 | 48 | 1021 | 10 | N 0 | |
| Ieri h: 12:53 | Sereno | 29 | 19 | 54 | 1021 | 10 | N 5.5 | |
| Ieri h: 11:53 | Sereno | 29 | 21 | 62 | 1022 | 10 | N 0 | |
| Ieri h: 10:53 | Sereno | 27 | 22 | 74 | 1022 | 10 | N 0 | |
| Ieri h: 09:53 | Sereno | 23 | 22 | 94 | 1022 | 10 | N 5.5 | |
| Ieri h: 08:53 | Sereno | 21 | 21 | 100 | 1022 | 11 | N/NO 7.4 | |
| Ieri h: 07:53 | Foschia | 20 | 20 | 100 | 1022 | 8 | N 0 | |
| Ieri h: 07:39 | Foschia | 19 | 19 | 100 | 1022 | 6 | N 0 | |
| Ieri h: 07:32 | Foschia | 19 | 19 | 100 | 1021 | 5 | N 0 | |
| Ieri h: 07:22 | Foschia | 19 | 19 | 100 | 1021 | 2 | N 0 | |
| Ieri h: 07:15 | Foschia | 19 | 19 | 100 | 1021 | 2 | N 0 | |
| Ieri h: 07:08 | Nebbia | 19 | 19 | 100 | 1021 | 2 | N 0 | |
| Ieri h: 06:53 | Nebbia | 19 | 19 | 100 | 1021 | 0 | N 0 | |
| Ieri h: 06:48 | Nebbia | 19 | 19 | 100 | 1021 | 0 | N 0 | |
| Ieri h: 06:25 | Nebbia | 19 | 19 | 100 | 1021 | 2 | N 0 | |
| Ieri h: 06:18 | Nebbia | 19 | 19 | 100 | 1021 | 2 | N 0 | |
| Ieri h: 05:55 | Foschia | 19 | 19 | 100 | 1021 | 5 | N 0 | |
| Ieri h: 05:53 | Foschia | 19 | 19 | 100 | 1021 | 5 | N 0 | |
| Ieri h: 05:43 | Foschia | 19 | 19 | 100 | 1021 | 5 | N 0 | |



